This is the latest recevied weather packets stored in our database for station/object K4DFD-13. If no packets are shown the sender has not sent any weather packets the latest 10 day(s).
| Time | Temp. | Humidity | Pressure | Rain* | Wind** | Luminosity | Snow |
|---|---|---|---|---|---|---|---|
| 1777364796 | 10° C | 95% | 1020.3 hPa | 4.32 mm | - | - | - |
| 1777364496 | 10° C | 96% | 1020 hPa | 2.54 mm | - | - | - |
| 1777364195 | 10° C | 95% | 1020.6 hPa | 2.54 mm | - | - | - |
| 1777363895 | 10° C | 95% | 1020.7 hPa | 2.54 mm | - | - | - |
| 1777363594 | 10.56° C | 94% | 1021.2 hPa | 2.54 mm | - | - | - |
| 1777363294 | 10.56° C | 91% | 1021.7 hPa | 1.78 mm | - | - | - |
| 1777362994 | 10.56° C | 90% | 1021.2 hPa | 1.78 mm | - | - | - |
| 1777362693 | 11.11° C | 88% | 1020.9 hPa | 3.05 mm | - | - | - |
| 1777362393 | 11.67° C | 80% | 1021.9 hPa | 0.25 mm | - | - | - |
| 1777362093 | 11.67° C | 78% | 1021.9 hPa | 0 mm | - | - | - |
| 1777361792 | 11.11° C | 78% | 1022.3 hPa | 0 mm | - | - | - |
| 1777361492 | 11.11° C | 79% | 1021.3 hPa | 0 mm | - | - | - |
| 1777361192 | 11.11° C | 78% | 1021.2 hPa | 0 mm | - | - | - |
| 1777360891 | 11.11° C | 78% | 1021.2 hPa | 0 mm | - | - | - |
| 1777360591 | 11.11° C | 78% | 1020.9 hPa | 0 mm | - | - | - |
| 1777360291 | 10.56° C | 79% | 1020.9 hPa | 0 mm | - | - | - |
| 1777359990 | 10.56° C | 79% | 1021.2 hPa | 0 mm | - | - | - |
| 1777359690 | 10.56° C | 78% | 1021.1 hPa | 0 mm | - | - | - |
| 1777359389 | 10.56° C | 79% | 1021.1 hPa | 0 mm | - | - | - |
| 1777359089 | 10.56° C | 78% | 1021.1 hPa | 0 mm | - | - | - |
| 1777358789 | 10° C | 79% | 1020.7 hPa | 0 mm | - | - | - |
| 1777358489 | 10° C | 80% | 1020.9 hPa | 0 mm | - | - | - |
| 1777358188 | 9.44° C | 80% | 1021.3 hPa | 0 mm | - | - | - |
| 1777357888 | 10° C | 80% | 1021.7 hPa | 0 mm | - | - | - |
| 1777357587 | 10° C | 79% | 1021.5 hPa | 0 mm | - | - | - |
* Rain latest hour (hover to see other rain measurements)
** Current wind speed in m/s (hover to see current wind gust speed)